Time;durP1;ratioP1;P1;durP2;ratioP2;P2;SDS_P1;SDS_P2;PMS_P1;PMS_P2;Temp;Humidity;BMP_temperature;BMP_pressure;BME280_temperature;BME280_humidity;BME280_pressure;Samples;Min_cycle;Max_cycle;Signal;HPM_P1;HPM_P2
2021/09/07 00:07:01;;;;;;;25.40;14.10;;;;;;;10.36;65.86;99415.16;456706;1203;108051;-43
2021/09/07 00:17:05;;;;;;;27.30;14.80;;;;;;;10.20;66.06;99410.02;456757;1203;99067;-42
2021/09/07 00:27:09;;;;;;;22.80;12.90;;;;;;;10.11;66.32;99402.84;456503;1203;112082;-42
2021/09/07 00:37:13;;;;;;;21.60;12.50;;;;;;;10.11;66.46;99394.14;456543;1195;108625;-42
2021/09/07 00:47:17;;;;;;;22.90;12.00;;;;;;;10.32;66.68;99395.89;456453;1203;99011;-41
2021/09/07 00:57:24;;;;;;;23.90;12.40;;;;;;;10.28;66.61;99388.19;456887;1203;108543;-42
2021/09/07 01:07:28;;;;;;;26.30;12.90;;;;;;;10.18;66.89;99380.55;456672;1203;99973;-43
2021/09/07 01:17:32;;;;;;;27.40;13.50;;;;;;;10.18;67.12;99377.49;456790;1203;111088;-44
2021/09/07 01:27:35;;;;;;;16.60;9.70;;;;;;;10.37;67.12;99367.08;456702;1203;107270;-41
2021/09/07 01:47:42;;;;;;;16.70;9.20;;;;;;;10.60;67.18;99361.56;456617;1203;108422;-42
2021/09/07 01:57:47;;;;;;;17.10;9.60;;;;;;;10.59;67.19;99356.44;457503;1195;99003;-42
2021/09/07 02:07:50;;;;;;;23.30;8.40;;;;;;;10.57;67.30;99346.65;456898;1200;112350;-42
2021/09/07 02:17:54;;;;;;;14.50;7.50;;;;;;;10.65;67.29;99341.77;456834;1195;108481;-41
2021/09/07 02:38:03;;;;;;;17.10;9.70;;;;;;;10.52;67.73;99324.91;456760;1203;108406;-42
2021/09/07 02:48:07;;;;;;;13.80;7.30;;;;;;;10.49;67.96;99315.86;456693;1203;98599;-42
2021/09/07 02:58:11;;;;;;;16.90;8.10;;;;;;;10.46;68.06;99317.52;456687;1203;111066;-43
2021/09/07 03:08:14;;;;;;;18.30;9.30;;;;;;;10.43;68.34;99314.77;456582;1203;108513;-43
2021/09/07 03:18:18;;;;;;;15.90;9.80;;;;;;;10.37;68.39;99307.95;456554;1203;99038;-42
2021/09/07 03:28:22;;;;;;;19.60;9.30;;;;;;;10.26;68.69;99300.41;456724;1203;108628;-41
2021/09/07 03:38:26;;;;;;;17.00;8.60;;;;;;;10.22;68.97;99302.09;456661;1203;98692;-42
2021/09/07 03:48:29;;;;;;;17.10;9.30;;;;;;;10.23;69.19;99308.15;456618;1198;112032;-42
2021/09/07 03:58:32;;;;;;;19.70;10.80;;;;;;;10.27;69.66;99293.86;456672;1203;108521;-41
2021/09/07 04:08:36;;;;;;;18.20;10.60;;;;;;;10.43;69.99;99295.02;456683;1198;98753;-41
2021/09/07 04:18:40;;;;;;;19.20;10.30;;;;;;;10.54;69.94;99295.36;456460;1203;108393;-43
2021/09/07 04:28:44;;;;;;;18.20;9.10;;;;;;;10.74;69.74;99290.42;456423;1203;99050;-42
2021/09/07 04:38:48;;;;;;;18.50;9.90;;;;;;;10.84;69.73;99288.08;456559;1195;112552;-42
2021/09/07 04:58:57;;;;;;;28.90;14.20;;;;;;;10.87;70.07;99293.10;456668;1196;99000;-41
2021/09/07 05:09:02;;;;;;;27.50;12.70;;;;;;;10.92;70.32;99294.81;456794;1203;108631;-41
2021/09/07 05:19:05;;;;;;;32.00;13.60;;;;;;;11.05;70.56;99292.67;456535;1196;98577;-42
2021/09/07 05:29:08;;;;;;;38.60;14.90;;;;;;;11.14;70.77;99285.73;456562;1203;112083;-42
2021/09/07 05:39:12;;;;;;;53.90;15.20;;;;;;;11.19;70.91;99295.02;456554;1196;108614;-41
2021/09/07 05:49:17;;;;;;;40.20;15.20;;;;;;;11.35;70.80;99292.74;456514;1203;98977;-42
2021/09/07 05:59:20;;;;;;;39.40;14.40;;;;;;;11.51;70.91;99304.02;456612;1203;108852;-42
2021/09/07 06:09:24;;;;;;;35.20;14.50;;;;;;;11.79;70.72;99309.42;456650;1203;98990;-42
2021/09/07 06:19:27;;;;;;;34.00;15.10;;;;;;;12.21;70.49;99308.60;456770;1196;111420;-42
2021/09/07 06:29:30;;;;;;;28.90;13.10;;;;;;;12.49;70.16;99311.95;456916;1195;108410;-41
2021/09/07 06:39:34;;;;;;;26.20;12.40;;;;;;;12.93;70.09;99306.98;456898;1197;98581;-41
2021/09/07 06:49:37;;;;;;;31.80;14.50;;;;;;;13.77;69.75;99311.48;456792;1196;108473;-42
2021/09/07 06:59:41;;;;;;;29.30;14.00;;;;;;;14.42;68.85;99318.08;456566;1196;99042;-43
2021/09/07 07:09:44;;;;;;;27.00;12.40;;;;;;;15.10;68.15;99318.88;456865;1203;112048;-42
2021/09/07 07:29:52;;;;;;;22.80;11.80;;;;;;;16.26;66.70;99335.15;457021;1202;99212;-41
2021/09/07 07:39:55;;;;;;;31.60;13.70;;;;;;;16.68;65.86;99336.35;456881;1195;108024;-40
2021/09/07 08:00:03;;;;;;;26.50;11.10;;;;;;;17.91;64.17;99345.09;456864;1203;112212;-43
2021/09/07 08:10:07;;;;;;;20.30;11.10;;;;;;;18.70;63.98;99349.81;456829;1203;108492;-40
2021/09/07 08:20:12;;;;;;;17.70;11.00;;;;;;;19.36;62.22;99350.27;457111;1196;98594;-43
2021/09/07 08:30:16;;;;;;;17.60;10.10;;;;;;;19.70;61.80;99355.06;457189;1196;108930;-42
2021/09/07 08:40:20;;;;;;;17.50;10.70;;;;;;;20.33;61.41;99358.80;456966;1203;99012;-42
2021/09/07 08:50:25;;;;;;;17.50;10.60;;;;;;;20.48;60.44;99361.60;456969;1196;111960;-42
2021/09/07 09:00:32;;;;;;;18.70;11.90;;;;;;;20.74;60.45;99362.79;456872;1203;107836;-40
2021/09/07 09:10:35;;;;;;;;;;;;;;;20.98;60.03;99364.31;457142;1195;98952;-41
2021/09/07 09:20:39;;;;;;;20.60;12.80;;;;;;;21.72;59.90;99364.55;456930;1203;106313;-41
2021/09/07 09:30:44;;;;;;;16.10;11.70;;;;;;;22.40;58.93;99364.55;456887;1203;99128;-42
2021/09/07 09:40:55;;;;;;;15.40;11.60;;;;;;;22.68;58.16;99360.58;457004;1196;112140;-43
2021/09/07 09:51:00;;;;;;;17.50;12.70;;;;;;;22.56;56.90;99359.08;456997;1203;108411;-42
2021/09/07 10:01:05;;;;;;;21.00;11.60;;;;;;;23.03;57.20;99353.52;457046;1203;99032;-43
2021/09/07 10:11:11;;;;;;;15.00;11.60;;;;;;;23.32;56.66;99346.46;457082;1203;108506;-41
2021/09/07 10:31:57;;;;;;;17.80;10.70;;;;;;;23.61;55.06;99335.21;457030;1202;112047;-41
2021/09/07 10:42:02;;;;;;;13.60;11.60;;;;;;;23.70;54.80;99331.77;457178;1203;108597;-43
2021/09/07 10:52:19;;;;;;;17.00;10.90;;;;;;;23.73;54.14;99335.35;456634;1196;98618;-42
2021/09/07 11:02:41;;;;;;;14.00;12.00;;;;;;;23.87;53.35;99333.99;457332;1195;112217;-43
2021/09/07 11:12:50;;;;;;;15.60;11.50;;;;;;;23.99;52.43;99329.97;456943;1203;108478;-41
2021/09/07 11:22:55;;;;;;;16.40;10.90;;;;;;;24.12;51.99;99326.14;456981;1203;98577;-42
2021/09/07 11:33:01;;;;;;;17.00;10.40;;;;;;;23.57;50.59;99337.32;457026;1195;109277;-41
2021/09/07 11:43:05;;;;;;;13.60;11.30;;;;;;;23.26;50.25;99333.77;457023;1203;98997;-42
2021/09/07 12:03:12;;;;;;;13.20;10.90;;;;;;;23.32;49.85;99326.91;456541;1203;108542;-42
2021/09/07 12:13:20;;;;;;;15.30;10.60;;;;;;;23.35;49.59;99328.14;457171;1203;98942;-41
2021/09/07 12:43:46;;;;;;;14.90;11.80;;;;;;;23.42;48.53;99318.64;456917;1203;111890;-40
2021/09/07 12:53:52;;;;;;;12.50;10.60;;;;;;;23.31;47.44;99317.60;457157;1203;108514;-42
2021/09/07 13:03:56;;;;;;;17.70;12.40;;;;;;;23.18;47.38;99311.62;457168;1197;99007;-41
2021/09/07 13:14:04;;;;;;;15.90;12.00;;;;;;;23.09;47.18;99306.86;456872;1203;108630;-41
2021/09/07 13:24:07;;;;;;;15.10;11.10;;;;;;;22.84;47.16;99301.14;456992;1203;99278;-41
2021/09/07 13:34:10;;;;;;;18.60;12.80;;;;;;;22.59;47.91;99296.23;457162;1195;112054;-41
2021/09/07 13:44:14;;;;;;;19.10;12.20;;;;;;;22.69;48.29;99291.13;456885;1203;108474;-42
2021/09/07 13:54:18;;;;;;;17.20;12.30;;;;;;;22.66;48.47;99289.86;456930;1203;99685;-42
2021/09/07 14:04:22;;;;;;;22.50;12.30;;;;;;;22.56;48.66;99292.63;457199;1195;108475;-41
2021/09/07 14:14:25;;;;;;;20.60;14.00;;;;;;;22.56;49.12;99293.48;457046;1203;98604;-41
2021/09/07 14:24:29;;;;;;;17.70;13.50;;;;;;;22.59;49.13;99297.20;456737;1203;112654;-41
2021/09/07 14:34:33;;;;;;;21.30;14.20;;;;;;;22.40;49.27;99299.41;457230;1203;99120;-41
2021/09/07 14:44:36;;;;;;;18.90;13.70;;;;;;;22.16;49.73;99299.30;457024;1195;98904;-41
2021/09/07 14:54:40;;;;;;;18.00;14.30;;;;;;;22.04;50.49;99300.90;456939;1203;112152;-42
2021/09/07 15:04:44;;;;;;;16.70;13.10;;;;;;;21.87;50.53;99292.80;457086;1197;108480;-41
2021/09/07 15:14:47;;;;;;;22.10;14.20;;;;;;;21.71;50.93;99299.05;457017;1203;98738;-40
2021/09/07 15:24:51;;;;;;;18.90;13.30;;;;;;;21.64;51.09;99303.55;457198;1203;108599;-41
2021/09/07 15:34:55;;;;;;;31.60;13.90;;;;;;;21.55;51.04;99302.31;456986;1203;98587;-40
2021/09/07 15:44:58;;;;;;;17.20;13.20;;;;;;;21.34;50.38;99304.34;457435;1203;112042;-41
2021/09/07 15:55:03;;;;;;;17.70;13.70;;;;;;;21.12;50.36;99302.20;456990;1200;108465;-41
2021/09/07 16:05:08;;;;;;;23.60;13.70;;;;;;;20.85;50.86;99302.41;457309;1200;99146;-41
2021/09/07 16:15:12;;;;;;;45.70;15.20;;;;;;;20.58;51.56;99303.89;457119;1203;98589;-40
2021/09/07 16:25:16;;;;;;;28.00;14.80;;;;;;;20.21;52.65;99307.62;457129;1200;108395;-41
2021/09/07 16:35:32;;;;;;;35.70;18.70;;;;;;;19.89;52.67;99306.35;456936;1203;99025;-45
2021/09/07 16:45:35;;;;;;;38.80;18.60;;;;;;;19.56;53.29;99304.34;456946;1203;112793;-42
2021/09/07 16:55:43;;;;;;;27.70;17.30;;;;;;;19.10;54.16;99299.98;456902;1203;108493;-43
2021/09/07 17:05:47;;;;;;;28.70;16.20;;;;;;;18.48;55.25;99301.55;457026;1203;99713;-42
2021/09/07 17:15:51;;;;;;;24.90;15.10;;;;;;;18.07;56.21;99309.58;456945;1195;108514;-42
2021/09/07 17:25:56;;;;;;;28.00;17.00;;;;;;;17.70;57.26;99315.54;457078;1203;98605;-42
2021/09/07 17:36:03;;;;;;;31.80;17.80;;;;;;;17.30;58.25;99328.20;457116;1205;112194;-42
2021/09/07 17:46:07;;;;;;;25.70;16.80;;;;;;;16.92;58.96;99330.84;457021;1202;108447;-41
2021/09/07 18:06:14;;;;;;;36.20;20.10;;;;;;;16.39;60.37;99326.11;457071;1200;108657;-43
2021/09/07 18:16:41;;;;;;;42.50;24.20;;;;;;;16.05;61.05;99334.09;456977;1202;98994;-40
2021/09/07 18:26:43;;;;;;;40.80;24.40;;;;;;;15.80;61.48;99339.84;457055;1202;112127;-40
2021/09/07 18:36:47;;;;;;;54.40;27.60;;;;;;;15.64;61.93;99350.66;457018;1203;108460;-41
2021/09/07 18:46:51;;;;;;;36.50;23.40;;;;;;;15.39;62.26;99360.76;456830;1204;98577;-42
2021/09/07 18:56:55;;;;;;;37.10;21.00;;;;;;;15.20;62.94;99368.34;457151;1204;106588;-41
2021/09/07 19:06:59;;;;;;;38.90;23.30;;;;;;;15.03;63.52;99362.89;456960;1205;98581;-40
2021/09/07 19:17:02;;;;;;;46.00;24.40;;;;;;;14.88;63.89;99360.45;456973;1202;112094;-41
2021/09/07 19:27:05;;;;;;;47.60;25.40;;;;;;;14.74;64.15;99357.64;456757;1203;108543;-41
2021/09/07 19:37:09;;;;;;;47.70;26.90;;;;;;;14.64;64.90;99359.10;457168;1202;98945;-41
2021/09/07 19:47:12;;;;;;;56.50;30.60;;;;;;;14.55;65.23;99359.84;457045;1195;108456;-41
2021/09/07 20:07:19;;;;;;;64.80;36.80;;;;;;;14.25;66.30;99361.37;456735;1204;111190;-42
2021/09/07 20:17:23;;;;;;;74.10;41.40;;;;;;;14.22;66.78;99361.27;457029;1203;108627;-41
2021/09/07 20:27:27;;;;;;;85.00;46.80;;;;;;;14.21;67.40;99367.29;457095;1203;98994;-41
2021/09/07 20:37:30;;;;;;;80.60;44.90;;;;;;;14.25;67.87;99370.89;456812;1202;108034;-43
2021/09/07 20:57:37;;;;;;;77.50;45.50;;;;;;;14.19;68.74;99372.77;456919;1202;112104;-41
2021/09/07 21:07:40;;;;;;;74.70;44.10;;;;;;;14.27;68.84;99371.98;457062;1202;108381;-41
2021/09/07 21:17:44;;;;;;;76.50;46.80;;;;;;;14.11;69.08;99371.65;456724;1203;99132;-41
2021/09/07 21:27:48;;;;;;;84.50;50.20;;;;;;;13.94;69.31;99371.23;457163;1202;107479;-41
2021/09/07 21:37:51;;;;;;;75.50;42.20;;;;;;;13.91;69.65;99377.64;457077;1200;98707;-40
2021/09/07 21:47:55;;;;;;;67.80;40.60;;;;;;;13.74;69.59;99385.84;456617;1203;112063;-42
2021/09/07 21:57:59;;;;;;;62.10;37.70;;;;;;;13.59;69.70;99384.59;456833;1200;108279;-41
2021/09/07 22:08:03;;;;;;;63.90;40.20;;;;;;;13.45;69.93;99387.55;456779;1200;97717;-41
2021/09/07 22:28:11;;;;;;;65.90;40.40;;;;;;;13.40;70.83;99371.34;456906;1197;99003;-41
2021/09/07 22:38:15;;;;;;;75.00;43.30;;;;;;;13.41;71.02;99370.57;456775;1203;112098;-41
2021/09/07 22:48:18;;;;;;;73.20;45.30;;;;;;;13.35;71.28;99373.02;456695;1202;108787;-41
2021/09/07 22:58:22;;;;;;;74.30;45.70;;;;;;;13.31;71.66;99376.02;456864;1200;99026;-42
2021/09/07 23:08:26;;;;;;;83.60;46.70;;;;;;;13.28;71.97;99374.77;456799;1194;108377;-42
2021/09/07 23:18:29;;;;;;;77.20;44.20;;;;;;;13.20;71.96;99375.93;456853;1203;99061;-41
2021/09/07 23:28:33;;;;;;;67.70;42.10;;;;;;;13.09;72.25;99379.98;457070;1202;112086;-41
2021/09/07 23:38:37;;;;;;;67.50;41.10;;;;;;;12.96;72.54;99368.84;457081;1202;108437;-41
2021/09/07 23:48:40;;;;;;;67.00;39.90;;;;;;;13.09;72.79;99369.14;456871;1200;99007;-41
2021/09/07 23:58:44;;;;;;;66.70;40.50;;;;;;;13.10;72.95;99372.92;456592;1203;108457;-42
